sensor_id;sensor_type;location;lat;lon;timestamp;P1;durP1;ratioP1;P2;durP2;ratioP2
29172;SDS011;16223;47.966;-1.616;2024-01-27T00:00:50;10.95;;;7.5125;;
29172;SDS011;16223;47.966;-1.616;2024-01-27T00:01:49;20.612499999999997;;;6.8999999999999995;;
29172;SDS011;16223;47.966;-1.616;2024-01-27T00:02:49;6.375000000000001;;;5.1;;
29172;SDS011;16223;47.966;-1.616;2024-01-27T00:03:49;10.1125;;;6.4750000000000005;;
29172;SDS011;16223;47.966;-1.616;2024-01-27T00:04:49;10.899999999999999;;;6.4125000000000005;;
29172;SDS011;16223;47.966;-1.616;2024-01-27T00:05:49;13.625;;;7.425;;
29172;SDS011;16223;47.966;-1.616;2024-01-27T00:06:49;8.275;;;5.975;;
29172;SDS011;16223;47.966;-1.616;2024-01-27T00:07:49;11.7625;;;6.8125;;
29172;SDS011;16223;47.966;-1.616;2024-01-27T00:08:49;9.087499999999999;;;5.675;;
29172;SDS011;16223;47.966;-1.616;2024-01-27T00:09:49;21.637500000000003;;;8.175;;
29172;SDS011;16223;47.966;-1.616;2024-01-27T00:10:49;8.037500000000001;;;6.2;;
29172;SDS011;16223;47.966;-1.616;2024-01-27T00:11:49;22.6375;;;7.75;;
29172;SDS011;16223;47.966;-1.616;2024-01-27T00:12:49;21.8125;;;4.8625;;
29172;SDS011;16223;47.966;-1.616;2024-01-27T00:13:49;7.6375;;;5.525;;
29172;SDS011;16223;47.966;-1.616;2024-01-27T00:14:49;15.125;;;5.6375;;
29172;SDS011;16223;47.966;-1.616;2024-01-27T00:15:49;13.75;;;5.5625;;
29172;SDS011;16223;47.966;-1.616;2024-01-27T00:16:49;12.3875;;;5.8375;;
29172;SDS011;16223;47.966;-1.616;2024-01-27T00:17:49;12.175;;;8.049999999999999;;
29172;SDS011;16223;47.966;-1.616;2024-01-27T00:18:49;11.7125;;;5.4125;;
29172;SDS011;16223;47.966;-1.616;2024-01-27T00:19:49;12.8;;;5.9;;
29172;SDS011;16223;47.966;-1.616;2024-01-27T00:20:49;14.424999999999999;;;6.1;;
29172;SDS011;16223;47.966;-1.616;2024-01-27T00:21:49;7.125;;;5.325;;
29172;SDS011;16223;47.966;-1.616;2024-01-27T00:22:49;16.0;;;6.2125;;
29172;SDS011;16223;47.966;-1.616;2024-01-27T00:23:49;9.3;;;5.5625;;
29172;SDS011;16223;47.966;-1.616;2024-01-27T00:24:49;5.7125;;;5.2124999999999995;;
29172;SDS011;16223;47.966;-1.616;2024-01-27T00:25:49;16.15;;;7.574999999999999;;
29172;SDS011;16223;47.966;-1.616;2024-01-27T00:26:49;12.7625;;;7.8;;
29172;SDS011;16223;47.966;-1.616;2024-01-27T00:27:49;15.162500000000001;;;5.475;;
29172;SDS011;16223;47.966;-1.616;2024-01-27T00:28:49;15.8875;;;8.0375;;
29172;SDS011;16223;47.966;-1.616;2024-01-27T00:29:49;9.4875;;;6.6875;;
29172;SDS011;16223;47.966;-1.616;2024-01-27T00:30:49;4.75;;;4.15;;
29172;SDS011;16223;47.966;-1.616;2024-01-27T00:31:49;13.224999999999998;;;6.574999999999999;;
29172;SDS011;16223;47.966;-1.616;2024-01-27T00:32:49;14.7;;;7.1625000000000005;;
29172;SDS011;16223;47.966;-1.616;2024-01-27T00:33:49;15.024999999999999;;;6.800000000000001;;
29172;SDS011;16223;47.966;-1.616;2024-01-27T00:34:49;28.375;;;8.075;;
29172;SDS011;16223;47.966;-1.616;2024-01-27T00:35:49;11.975;;;7.675;;
29172;SDS011;16223;47.966;-1.616;2024-01-27T00:36:49;23.4875;;;8.0875;;
29172;SDS011;16223;47.966;-1.616;2024-01-27T00:37:49;18.2875;;;7.7250000000000005;;
29172;SDS011;16223;47.966;-1.616;2024-01-27T00:38:49;26.487500000000004;;;9.3625;;
29172;SDS011;16223;47.966;-1.616;2024-01-27T00:39:49;9.037500000000001;;;7.362499999999999;;
29172;SDS011;16223;47.966;-1.616;2024-01-27T00:40:49;11.6875;;;8.7875;;
29172;SDS011;16223;47.966;-1.616;2024-01-27T00:41:49;17.25;;;8.6375;;
29172;SDS011;16223;47.966;-1.616;2024-01-27T00:42:49;9.225000000000001;;;7.55;;
29172;SDS011;16223;47.966;-1.616;2024-01-27T00:43:49;8.05;;;7.0249999999999995;;
29172;SDS011;16223;47.966;-1.616;2024-01-27T00:44:49;15.3;;;10.9375;;
29172;SDS011;16223;47.966;-1.616;2024-01-27T00:45:49;8.075;;;6.1;;
29172;SDS011;16223;47.966;-1.616;2024-01-27T00:46:49;17.224999999999998;;;6.45;;
29172;SDS011;16223;47.966;-1.616;2024-01-27T00:47:49;14.749999999999998;;;6.575;;
29172;SDS011;16223;47.966;-1.616;2024-01-27T00:48:49;9.8875;;;7.7749999999999995;;
29172;SDS011;16223;47.966;-1.616;2024-01-27T00:49:49;21.6375;;;8.825;;
29172;SDS011;16223;47.966;-1.616;2024-01-27T00:50:49;12.0125;;;7.05;;
29172;SDS011;16223;47.966;-1.616;2024-01-27T00:51:49;14.524999999999999;;;7.975;;
29172;SDS011;16223;47.966;-1.616;2024-01-27T00:52:49;42.412499999999994;;;8.6875;;
29172;SDS011;16223;47.966;-1.616;2024-01-27T00:53:49;22.674999999999997;;;9.425;;
29172;SDS011;16223;47.966;-1.616;2024-01-27T00:54:49;16.8;;;8.600000000000001;;
29172;SDS011;16223;47.966;-1.616;2024-01-27T00:55:49;15.337499999999999;;;8.85;;
29172;SDS011;16223;47.966;-1.616;2024-01-27T00:56:49;12.3875;;;7.875;;
29172;SDS011;16223;47.966;-1.616;2024-01-27T00:57:49;15.625;;;9.6875;;
29172;SDS011;16223;47.966;-1.616;2024-01-27T00:58:49;16.9;;;9.912500000000001;;
29172;SDS011;16223;47.966;-1.616;2024-01-27T00:59:49;20.2625;;;9.375;;
29172;SDS011;16223;47.966;-1.616;2024-01-27T01:00:49;10.7375;;;5.4750000000000005;;
29172;SDS011;16223;47.966;-1.616;2024-01-27T01:01:49;12.8;;;7.9375;;
29172;SDS011;16223;47.966;-1.616;2024-01-27T01:02:49;14.725;;;8.05;;
29172;SDS011;16223;47.966;-1.616;2024-01-27T01:03:49;13.5625;;;8.2875;;
29172;SDS011;16223;47.966;-1.616;2024-01-27T01:04:49;27.537499999999998;;;9.8375;;
29172;SDS011;16223;47.966;-1.616;2024-01-27T01:05:49;8.2375;;;6.1875;;
29172;SDS011;16223;47.966;-1.616;2024-01-27T01:06:49;12.524999999999999;;;7.5;;
29172;SDS011;16223;47.966;-1.616;2024-01-27T01:07:49;16.5875;;;8.8125;;
29172;SDS011;16223;47.966;-1.616;2024-01-27T01:08:49;29.8375;;;7.612500000000001;;
29172;SDS011;16223;47.966;-1.616;2024-01-27T01:09:49;12.1125;;;9.825;;
29172;SDS011;16223;47.966;-1.616;2024-01-27T01:10:49;10.150000000000002;;;7.3374999999999995;;
29172;SDS011;16223;47.966;-1.616;2024-01-27T01:11:49;11.212499999999999;;;7.799999999999999;;
29172;SDS011;16223;47.966;-1.616;2024-01-27T01:12:49;17.725;;;6.1;;
29172;SDS011;16223;47.966;-1.616;2024-01-27T01:13:49;13.0;;;8.9375;;
29172;SDS011;16223;47.966;-1.616;2024-01-27T01:14:49;11.2375;;;7.612500000000001;;
29172;SDS011;16223;47.966;-1.616;2024-01-27T01:15:49;10.225;;;7.4;;
29172;SDS011;16223;47.966;-1.616;2024-01-27T01:16:49;16.799999999999997;;;9.3;;
29172;SDS011;16223;47.966;-1.616;2024-01-27T01:17:49;15.0875;;;7.225;;
29172;SDS011;16223;47.966;-1.616;2024-01-27T01:18:49;15.3;;;9.0625;;
29172;SDS011;16223;47.966;-1.616;2024-01-27T01:19:49;13.4375;;;7.6;;
29172;SDS011;16223;47.966;-1.616;2024-01-27T01:20:49;12.4875;;;9.375;;
29172;SDS011;16223;47.966;-1.616;2024-01-27T01:21:49;21.2375;;;10.075;;
29172;SDS011;16223;47.966;-1.616;2024-01-27T01:22:49;24.35;;;9.274999999999999;;
29172;SDS011;16223;47.966;-1.616;2024-01-27T01:23:49;22.1125;;;8.325;;
29172;SDS011;16223;47.966;-1.616;2024-01-27T01:24:49;7.9375;;;7.1375;;
29172;SDS011;16223;47.966;-1.616;2024-01-27T01:25:49;20.55;;;8.45;;
29172;SDS011;16223;47.966;-1.616;2024-01-27T01:26:49;28.225;;;10.962499999999999;;
29172;SDS011;16223;47.966;-1.616;2024-01-27T01:27:49;11.85;;;8.1125;;
29172;SDS011;16223;47.966;-1.616;2024-01-27T01:28:49;15.55;;;7.825000000000001;;
29172;SDS011;16223;47.966;-1.616;2024-01-27T01:29:49;8.95;;;8.125;;
29172;SDS011;16223;47.966;-1.616;2024-01-27T01:30:49;65.075;;;12.0;;
29172;SDS011;16223;47.966;-1.616;2024-01-27T01:31:49;10.4;;;7.9;;
29172;SDS011;16223;47.966;-1.616;2024-01-27T01:32:49;22.35;;;11.5625;;
29172;SDS011;16223;47.966;-1.616;2024-01-27T01:33:49;17.2375;;;8.325;;
29172;SDS011;16223;47.966;-1.616;2024-01-27T01:34:49;12.875;;;9.4;;
29172;SDS011;16223;47.966;-1.616;2024-01-27T01:35:49;11.875;;;9.35;;
29172;SDS011;16223;47.966;-1.616;2024-01-27T01:36:49;13.1;;;8.0375;;
29172;SDS011;16223;47.966;-1.616;2024-01-27T01:37:49;20.2625;;;7.824999999999999;;
29172;SDS011;16223;47.966;-1.616;2024-01-27T01:38:49;13.562500000000002;;;10.0625;;
29172;SDS011;16223;47.966;-1.616;2024-01-27T01:39:49;28.75;;;9.3625;;
29172;SDS011;16223;47.966;-1.616;2024-01-27T01:40:49;13.4375;;;8.825;;
29172;SDS011;16223;47.966;-1.616;2024-01-27T01:41:49;12.7125;;;9.6375;;
29172;SDS011;16223;47.966;-1.616;2024-01-27T01:42:50;17.025;;;10.375;;
29172;SDS011;16223;47.966;-1.616;2024-01-27T01:43:49;11.075000000000001;;;8.15;;
29172;SDS011;16223;47.966;-1.616;2024-01-27T01:44:49;17.787499999999998;;;10.75;;
29172;SDS011;16223;47.966;-1.616;2024-01-27T01:45:49;14.65;;;7.112500000000001;;
29172;SDS011;16223;47.966;-1.616;2024-01-27T01:46:49;10.6125;;;8.7375;;
29172;SDS011;16223;47.966;-1.616;2024-01-27T01:47:49;8.0375;;;6.512499999999999;;
29172;SDS011;16223;47.966;-1.616;2024-01-27T01:48:49;18.825000000000003;;;11.425;;
29172;SDS011;16223;47.966;-1.616;2024-01-27T01:49:49;19.2875;;;9.3875;;
29172;SDS011;16223;47.966;-1.616;2024-01-27T01:50:49;14.137500000000001;;;9.55;;
29172;SDS011;16223;47.966;-1.616;2024-01-27T01:51:49;17.225;;;8.1625;;
29172;SDS011;16223;47.966;-1.616;2024-01-27T01:52:49;19.875;;;8.912500000000001;;
29172;SDS011;16223;47.966;-1.616;2024-01-27T01:53:49;7.0625;;;5.975;;
29172;SDS011;16223;47.966;-1.616;2024-01-27T01:54:49;14.775;;;9.275;;
29172;SDS011;16223;47.966;-1.616;2024-01-27T01:55:49;13.5;;;7.125;;
29172;SDS011;16223;47.966;-1.616;2024-01-27T01:56:49;7.475;;;6.4375;;
29172;SDS011;16223;47.966;-1.616;2024-01-27T01:57:49;21.3375;;;8.9375;;
29172;SDS011;16223;47.966;-1.616;2024-01-27T01:58:49;22.875;;;11.774999999999999;;
29172;SDS011;16223;47.966;-1.616;2024-01-27T01:59:49;12.15;;;9.075;;
29172;SDS011;16223;47.966;-1.616;2024-01-27T02:00:49;39.2375;;;10.0375;;
29172;SDS011;16223;47.966;-1.616;2024-01-27T02:01:49;18.025;;;9.1375;;
29172;SDS011;16223;47.966;-1.616;2024-01-27T02:02:49;11.6125;;;6.6625000000000005;;
29172;SDS011;16223;47.966;-1.616;2024-01-27T02:03:51;26.125;;;11.75;;
29172;SDS011;16223;47.966;-1.616;2024-01-27T02:04:49;18.8875;;;9.075;;
29172;SDS011;16223;47.966;-1.616;2024-01-27T02:05:49;12.212499999999999;;;8.225000000000001;;
29172;SDS011;16223;47.966;-1.616;2024-01-27T02:06:49;13.6125;;;9.0125;;
29172;SDS011;16223;47.966;-1.616;2024-01-27T02:07:49;17.325;;;8.775;;
29172;SDS011;16223;47.966;-1.616;2024-01-27T02:08:49;16.45;;;8.6;;
29172;SDS011;16223;47.966;-1.616;2024-01-27T02:09:49;42.987500000000004;;;10.825;;
29172;SDS011;16223;47.966;-1.616;2024-01-27T02:10:49;11.6;;;8.962499999999999;;
29172;SDS011;16223;47.966;-1.616;2024-01-27T02:11:49;12.1875;;;8.2;;
29172;SDS011;16223;47.966;-1.616;2024-01-27T02:12:49;16.775;;;8.587499999999999;;
29172;SDS011;16223;47.966;-1.616;2024-01-27T02:13:49;12.325;;;7.0;;
29172;SDS011;16223;47.966;-1.616;2024-01-27T02:14:49;13.325000000000001;;;9.425;;
29172;SDS011;16223;47.966;-1.616;2024-01-27T02:15:49;7.8500000000000005;;;6.8999999999999995;;
29172;SDS011;16223;47.966;-1.616;2024-01-27T02:16:49;9.2625;;;6.775;;
29172;SDS011;16223;47.966;-1.616;2024-01-27T02:17:49;8.725000000000001;;;7.4;;
29172;SDS011;16223;47.966;-1.616;2024-01-27T02:18:49;13.3625;;;7.312499999999999;;
29172;SDS011;16223;47.966;-1.616;2024-01-27T02:19:49;13.0125;;;9.3875;;
29172;SDS011;16223;47.966;-1.616;2024-01-27T02:20:49;28.8;;;7.275;;
29172;SDS011;16223;47.966;-1.616;2024-01-27T02:21:49;12.65;;;7.0874999999999995;;
29172;SDS011;16223;47.966;-1.616;2024-01-27T02:22:49;8.25;;;7.225;;
29172;SDS011;16223;47.966;-1.616;2024-01-27T02:23:49;13.787500000000001;;;8.125;;
29172;SDS011;16223;47.966;-1.616;2024-01-27T02:24:49;13.65;;;7.85;;
29172;SDS011;16223;47.966;-1.616;2024-01-27T02:25:49;14.787500000000001;;;7.4375;;
29172;SDS011;16223;47.966;-1.616;2024-01-27T02:26:49;8.875;;;7.3374999999999995;;
29172;SDS011;16223;47.966;-1.616;2024-01-27T02:27:49;27.5625;;;8.1;;
29172;SDS011;16223;47.966;-1.616;2024-01-27T02:28:49;19.725;;;7.4375;;
29172;SDS011;16223;47.966;-1.616;2024-01-27T02:29:49;11.312500000000002;;;6.625;;
29172;SDS011;16223;47.966;-1.616;2024-01-27T02:30:49;11.524999999999999;;;8.8375;;
29172;SDS011;16223;47.966;-1.616;2024-01-27T02:31:49;27.025000000000002;;;7.375;;
29172;SDS011;16223;47.966;-1.616;2024-01-27T02:32:49;13.575;;;8.225000000000001;;
29172;SDS011;16223;47.966;-1.616;2024-01-27T02:33:49;12.3125;;;7.7749999999999995;;
29172;SDS011;16223;47.966;-1.616;2024-01-27T02:34:49;30.8625;;;8.5125;;
29172;SDS011;16223;47.966;-1.616;2024-01-27T02:35:49;16.9875;;;7.4625;;
29172;SDS011;16223;47.966;-1.616;2024-01-27T02:36:49;11.75;;;8.350000000000001;;
29172;SDS011;16223;47.966;-1.616;2024-01-27T02:37:49;23.0;;;8.075;;
29172;SDS011;16223;47.966;-1.616;2024-01-27T02:38:49;16.5625;;;7.487500000000001;;
29172;SDS011;16223;47.966;-1.616;2024-01-27T02:39:49;10.925;;;8.6875;;
29172;SDS011;16223;47.966;-1.616;2024-01-27T02:40:49;20.3375;;;7.550000000000001;;
29172;SDS011;16223;47.966;-1.616;2024-01-27T02:41:49;21.087500000000002;;;8.912500000000001;;
29172;SDS011;16223;47.966;-1.616;2024-01-27T02:42:49;19.825000000000003;;;8.425;;
29172;SDS011;16223;47.966;-1.616;2024-01-27T02:43:49;9.549999999999999;;;7.5875;;
29172;SDS011;16223;47.966;-1.616;2024-01-27T02:44:49;11.912500000000001;;;7.050000000000001;;
29172;SDS011;16223;47.966;-1.616;2024-01-27T02:45:49;10.7375;;;7.25;;
29172;SDS011;16223;47.966;-1.616;2024-01-27T02:46:49;12.787500000000001;;;7.15;;
29172;SDS011;16223;47.966;-1.616;2024-01-27T02:47:49;21.1375;;;7.425;;
29172;SDS011;16223;47.966;-1.616;2024-01-27T02:48:49;10.462499999999999;;;7.8375;;
29172;SDS011;16223;47.966;-1.616;2024-01-27T02:49:49;2.5625;;;1.525;;
29172;SDS011;16223;47.966;-1.616;2024-01-27T02:50:49;16.549999999999997;;;7.35;;
29172;SDS011;16223;47.966;-1.616;2024-01-27T02:51:49;7.3375;;;4.95;;
29172;SDS011;16223;47.966;-1.616;2024-01-27T02:52:49;3.575;;;3.2875;;
29172;SDS011;16223;47.966;-1.616;2024-01-27T02:53:49;7.5;;;6.8125;;
29172;SDS011;16223;47.966;-1.616;2024-01-27T02:54:49;8.55;;;6.5;;
29172;SDS011;16223;47.966;-1.616;2024-01-27T02:55:49;7.4625;;;5.4;;
29172;SDS011;16223;47.966;-1.616;2024-01-27T02:56:49;26.15;;;8.9375;;
29172;SDS011;16223;47.966;-1.616;2024-01-27T02:57:49;4.7875;;;4.45;;
29172;SDS011;16223;47.966;-1.616;2024-01-27T02:58:49;9.7125;;;4.525;;
29172;SDS011;16223;47.966;-1.616;2024-01-27T02:59:49;7.15;;;5.4875;;
29172;SDS011;16223;47.966;-1.616;2024-01-27T03:00:49;8.850000000000001;;;6.4625;;
29172;SDS011;16223;47.966;-1.616;2024-01-27T03:01:49;17.5875;;;5.699999999999999;;
29172;SDS011;16223;47.966;-1.616;2024-01-27T03:02:49;10.4;;;6.2875;;
29172;SDS011;16223;47.966;-1.616;2024-01-27T03:03:49;10.65;;;6.824999999999999;;
29172;SDS011;16223;47.966;-1.616;2024-01-27T03:04:49;7.875000000000001;;;6.4875;;
29172;SDS011;16223;47.966;-1.616;2024-01-27T03:05:49;12.599999999999998;;;5.925;;
29172;SDS011;16223;47.966;-1.616;2024-01-27T03:06:49;6.3625;;;5.0;;
29172;SDS011;16223;47.966;-1.616;2024-01-27T03:07:49;17.2625;;;6.775;;
29172;SDS011;16223;47.966;-1.616;2024-01-27T03:08:49;10.5875;;;7.112500000000001;;
29172;SDS011;16223;47.966;-1.616;2024-01-27T03:09:49;5.7375;;;3.7125000000000004;;
29172;SDS011;16223;47.966;-1.616;2024-01-27T03:10:49;6.25;;;5.5625;;
29172;SDS011;16223;47.966;-1.616;2024-01-27T03:11:49;9.8125;;;6.0625;;
29172;SDS011;16223;47.966;-1.616;2024-01-27T03:12:49;9.837499999999999;;;5.7375;;
29172;SDS011;16223;47.966;-1.616;2024-01-27T03:13:49;8.9625;;;6.65;;
29172;SDS011;16223;47.966;-1.616;2024-01-27T03:14:49;23.3875;;;7.949999999999999;;
29172;SDS011;16223;47.966;-1.616;2024-01-27T03:15:49;6.5625;;;5.324999999999999;;
29172;SDS011;16223;47.966;-1.616;2024-01-27T03:16:49;7.449999999999999;;;6.6125;;
29172;SDS011;16223;47.966;-1.616;2024-01-27T03:17:49;15.775;;;7.312500000000001;;
29172;SDS011;16223;47.966;-1.616;2024-01-27T03:18:49;5.125;;;3.7375;;
29172;SDS011;16223;47.966;-1.616;2024-01-27T03:19:49;4.4875;;;4.1;;
29172;SDS011;16223;47.966;-1.616;2024-01-27T03:20:49;17.525;;;4.375;;
29172;SDS011;16223;47.966;-1.616;2024-01-27T03:21:49;4.8375;;;3.55;;
29172;SDS011;16223;47.966;-1.616;2024-01-27T03:22:49;13.950000000000001;;;8.149999999999999;;
29172;SDS011;16223;47.966;-1.616;2024-01-27T03:23:49;7.1;;;4.9625;;
29172;SDS011;16223;47.966;-1.616;2024-01-27T03:24:49;9.149999999999999;;;6.387499999999999;;
29172;SDS011;16223;47.966;-1.616;2024-01-27T03:25:49;9.85;;;4.575;;
29172;SDS011;16223;47.966;-1.616;2024-01-27T03:26:49;14.3125;;;5.512499999999999;;
29172;SDS011;16223;47.966;-1.616;2024-01-27T03:27:49;5.4750000000000005;;;4.6499999999999995;;
29172;SDS011;16223;47.966;-1.616;2024-01-27T03:28:49;3.4124999999999996;;;2.575;;
29172;SDS011;16223;47.966;-1.616;2024-01-27T03:29:49;6.175;;;5.612500000000001;;
29172;SDS011;16223;47.966;-1.616;2024-01-27T03:30:49;7.8375;;;5.1375;;
29172;SDS011;16223;47.966;-1.616;2024-01-27T03:31:49;11.975;;;6.5375;;
29172;SDS011;16223;47.966;-1.616;2024-01-27T03:32:49;11.45;;;5.7625;;
29172;SDS011;16223;47.966;-1.616;2024-01-27T03:33:49;9.1875;;;5.3;;
29172;SDS011;16223;47.966;-1.616;2024-01-27T03:34:49;6.05;;;4.6875;;
29172;SDS011;16223;47.966;-1.616;2024-01-27T03:35:49;9.3875;;;6.25;;
29172;SDS011;16223;47.966;-1.616;2024-01-27T03:36:49;12.7;;;6.925;;
29172;SDS011;16223;47.966;-1.616;2024-01-27T03:37:49;9.75;;;6.574999999999999;;
29172;SDS011;16223;47.966;-1.616;2024-01-27T03:38:49;21.2125;;;2.7625;;
29172;SDS011;16223;47.966;-1.616;2024-01-27T03:39:49;2.95;;;2.7125;;
29172;SDS011;16223;47.966;-1.616;2024-01-27T03:40:49;6.824999999999999;;;5.325;;
29172;SDS011;16223;47.966;-1.616;2024-01-27T03:41:49;4.9125;;;4.0625;;
29172;SDS011;16223;47.966;-1.616;2024-01-27T03:42:49;7.1499999999999995;;;5.3625;;
29172;SDS011;16223;47.966;-1.616;2024-01-27T03:43:49;4.1875;;;3.8499999999999996;;
29172;SDS011;16223;47.966;-1.616;2024-01-27T03:44:49;7.0875;;;3.9124999999999996;;
29172;SDS011;16223;47.966;-1.616;2024-01-27T03:45:49;8.5625;;;5.0875;;
29172;SDS011;16223;47.966;-1.616;2024-01-27T03:46:49;12.037500000000001;;;4.8;;
29172;SDS011;16223;47.966;-1.616;2024-01-27T03:47:49;7.3625;;;2.7;;
29172;SDS011;16223;47.966;-1.616;2024-01-27T03:48:49;4.762499999999999;;;3.8125;;
29172;SDS011;16223;47.966;-1.616;2024-01-27T03:49:49;11.65;;;5.5375;;
29172;SDS011;16223;47.966;-1.616;2024-01-27T03:50:49;15.45;;;3.75;;
29172;SDS011;16223;47.966;-1.616;2024-01-27T03:51:49;4.699999999999999;;;3.0625000000000004;;
29172;SDS011;16223;47.966;-1.616;2024-01-27T03:52:49;5.237500000000001;;;4.2124999999999995;;
29172;SDS011;16223;47.966;-1.616;2024-01-27T03:53:49;5.637499999999999;;;4.550000000000001;;
29172;SDS011;16223;47.966;-1.616;2024-01-27T03:54:49;4.5125;;;4.1;;
29172;SDS011;16223;47.966;-1.616;2024-01-27T03:55:49;6.125;;;4.875;;
29172;SDS011;16223;47.966;-1.616;2024-01-27T03:56:49;10.124999999999998;;;4.425;;
29172;SDS011;16223;47.966;-1.616;2024-01-27T03:57:49;3.75;;;3.2249999999999996;;
29172;SDS011;16223;47.966;-1.616;2024-01-27T03:58:49;4.725;;;4.025;;
29172;SDS011;16223;47.966;-1.616;2024-01-27T03:59:49;14.9875;;;6.262499999999999;;
29172;SDS011;16223;47.966;-1.616;2024-01-27T04:00:49;7.825;;;4.4375;;
29172;SDS011;16223;47.966;-1.616;2024-01-27T04:01:49;2.8625;;;2.525;;
29172;SDS011;16223;47.966;-1.616;2024-01-27T04:02:49;11.850000000000001;;;5.0;;
29172;SDS011;16223;47.966;-1.616;2024-01-27T04:03:49;23.5625;;;4.0875;;
29172;SDS011;16223;47.966;-1.616;2024-01-27T04:04:49;6.075;;;3.3625;;
29172;SDS011;16223;47.966;-1.616;2024-01-27T04:05:49;3.55;;;2.8125;;
29172;SDS011;16223;47.966;-1.616;2024-01-27T04:06:49;7.4125000000000005;;;2.7875;;
29172;SDS011;16223;47.966;-1.616;2024-01-27T04:07:49;7.8999999999999995;;;3.925;;
29172;SDS011;16223;47.966;-1.616;2024-01-27T04:08:49;9.475000000000001;;;3.7;;
29172;SDS011;16223;47.966;-1.616;2024-01-27T04:09:49;3.1500000000000004;;;2.4625000000000004;;
29172;SDS011;16223;47.966;-1.616;2024-01-27T04:10:49;14.6875;;;9.0;;
29172;SDS011;16223;47.966;-1.616;2024-01-27T04:11:49;4.475;;;3.4375;;
29172;SDS011;16223;47.966;-1.616;2024-01-27T04:12:49;16.925;;;5.1;;
29172;SDS011;16223;47.966;-1.616;2024-01-27T04:13:49;8.4125;;;5.0375;;
29172;SDS011;16223;47.966;-1.616;2024-01-27T04:14:49;6.2875;;;3.3625;;
29172;SDS011;16223;47.966;-1.616;2024-01-27T04:15:49;7.4375;;;4.55;;
29172;SDS011;16223;47.966;-1.616;2024-01-27T04:16:49;6.825;;;4.65;;
29172;SDS011;16223;47.966;-1.616;2024-01-27T04:17:49;4.3;;;2.3375000000000004;;
29172;SDS011;16223;47.966;-1.616;2024-01-27T04:18:49;9.9625;;;4.6875;;
29172;SDS011;16223;47.966;-1.616;2024-01-27T04:19:49;15.387500000000001;;;6.0625;;
29172;SDS011;16223;47.966;-1.616;2024-01-27T04:20:49;9.625;;;3.4625000000000004;;
29172;SDS011;16223;47.966;-1.616;2024-01-27T04:21:49;3.5;;;3.0375;;
29172;SDS011;16223;47.966;-1.616;2024-01-27T04:22:49;7.1625000000000005;;;5.0625;;
29172;SDS011;16223;47.966;-1.616;2024-01-27T04:23:49;18.7875;;;5.2875;;
29172;SDS011;16223;47.966;-1.616;2024-01-27T04:24:49;18.275;;;4.8125;;
29172;SDS011;16223;47.966;-1.616;2024-01-27T04:25:49;4.762499999999999;;;4.15;;
29172;SDS011;16223;47.966;-1.616;2024-01-27T04:26:49;8.75;;;4.8875;;
29172;SDS011;16223;47.966;-1.616;2024-01-27T04:27:49;2.825;;;2.6375;;
29172;SDS011;16223;47.966;-1.616;2024-01-27T04:28:49;4.824999999999999;;;3.675;;
29172;SDS011;16223;47.966;-1.616;2024-01-27T04:29:49;22.2875;;;3.6125;;
29172;SDS011;16223;47.966;-1.616;2024-01-27T04:30:49;5.0;;;3.725;;
29172;SDS011;16223;47.966;-1.616;2024-01-27T04:31:49;3.1624999999999996;;;1.925;;
29172;SDS011;16223;47.966;-1.616;2024-01-27T04:32:49;19.375;;;4.1375;;
29172;SDS011;16223;47.966;-1.616;2024-01-27T04:33:49;5.362500000000001;;;3.9625000000000004;;
29172;SDS011;16223;47.966;-1.616;2024-01-27T04:34:49;10.162500000000001;;;3.775;;
29172;SDS011;16223;47.966;-1.616;2024-01-27T04:35:49;24.2625;;;4.6875;;
29172;SDS011;16223;47.966;-1.616;2024-01-27T04:36:49;4.8374999999999995;;;3.675;;
29172;SDS011;16223;47.966;-1.616;2024-01-27T04:37:49;11.5;;;3.4875;;
29172;SDS011;16223;47.966;-1.616;2024-01-27T04:38:49;9.2625;;;2.8625;;
29172;SDS011;16223;47.966;-1.616;2024-01-27T04:39:49;13.162500000000001;;;4.5625;;
29172;SDS011;16223;47.966;-1.616;2024-01-27T04:40:49;9.9375;;;3.3125;;
29172;SDS011;16223;47.966;-1.616;2024-01-27T04:41:49;7.362500000000001;;;3.5250000000000004;;
29172;SDS011;16223;47.966;-1.616;2024-01-27T04:42:49;3.2875;;;3.025;;
29172;SDS011;16223;47.966;-1.616;2024-01-27T04:43:49;7.0;;;4.512499999999999;;
29172;SDS011;16223;47.966;-1.616;2024-01-27T04:44:49;3.3125;;;3.05;;
29172;SDS011;16223;47.966;-1.616;2024-01-27T04:45:49;6.0125;;;2.625;;
29172;SDS011;16223;47.966;-1.616;2024-01-27T04:46:49;16.8375;;;3.725;;
29172;SDS011;16223;47.966;-1.616;2024-01-27T04:47:49;5.4625;;;4.2625;;
29172;SDS011;16223;47.966;-1.616;2024-01-27T04:48:49;2.8375;;;1.9;;
29172;SDS011;16223;47.966;-1.616;2024-01-27T04:49:49;5.525;;;4.237500000000001;;
29172;SDS011;16223;47.966;-1.616;2024-01-27T04:50:49;4.925000000000001;;;3.7874999999999996;;
29172;SDS011;16223;47.966;-1.616;2024-01-27T04:51:49;11.075;;;4.6625;;
29172;SDS011;16223;47.966;-1.616;2024-01-27T04:52:49;7.425000000000001;;;3.875;;
29172;SDS011;16223;47.966;-1.616;2024-01-27T04:53:49;3.4375;;;2.7375;;
29172;SDS011;16223;47.966;-1.616;2024-01-27T04:54:49;6.9625;;;4.3875;;
29172;SDS011;16223;47.966;-1.616;2024-01-27T04:55:49;4.2125;;;3.225;;
29172;SDS011;16223;47.966;-1.616;2024-01-27T04:56:49;4.8;;;3.1875;;
29172;SDS011;16223;47.966;-1.616;2024-01-27T04:57:49;3.4625;;;3.0375;;
29172;SDS011;16223;47.966;-1.616;2024-01-27T04:58:49;5.574999999999999;;;3.6375;;
29172;SDS011;16223;47.966;-1.616;2024-01-27T04:59:49;4.2625;;;3.3875;;
29172;SDS011;16223;47.966;-1.616;2024-01-27T05:00:49;4.6875;;;3.4375;;
29172;SDS011;16223;47.966;-1.616;2024-01-27T05:01:49;4.975;;;3.0999999999999996;;
29172;SDS011;16223;47.966;-1.616;2024-01-27T05:02:49;6.525;;;3.5874999999999995;;
29172;SDS011;16223;47.966;-1.616;2024-01-27T05:03:49;3.625;;;3.325;;
29172;SDS011;16223;47.966;-1.616;2024-01-27T05:04:49;12.7375;;;2.7249999999999996;;
29172;SDS011;16223;47.966;-1.616;2024-01-27T05:05:49;6.3125;;;4.7125;;
29172;SDS011;16223;47.966;-1.616;2024-01-27T05:06:49;4.8;;;3.775;;
29172;SDS011;16223;47.966;-1.616;2024-01-27T05:07:49;5.3125;;;3.8125;;
29172;SDS011;16223;47.966;-1.616;2024-01-27T05:08:49;3.0374999999999996;;;2.8125;;
29172;SDS011;16223;47.966;-1.616;2024-01-27T05:09:49;7.387499999999999;;;3.3;;
29172;SDS011;16223;47.966;-1.616;2024-01-27T05:10:49;12.3;;;4.6375;;
29172;SDS011;16223;47.966;-1.616;2024-01-27T05:11:49;4.3375;;;3.05;;
29172;SDS011;16223;47.966;-1.616;2024-01-27T05:12:49;4.5375;;;4.262499999999999;;
29172;SDS011;16223;47.966;-1.616;2024-01-27T05:13:49;20.45;;;3.475;;
29172;SDS011;16223;47.966;-1.616;2024-01-27T05:14:49;4.225;;;3.0625;;